createdAt,value
2019-06-27T00:01:31.158Z,63.50
2019-06-27T00:03:59.634Z,65.40
2019-06-27T00:06:27.964Z,67.30
2019-06-27T00:08:56.341Z,69.00
2019-06-27T00:11:24.805Z,70.60
2019-06-27T00:13:53.188Z,72.10
2019-06-27T00:16:21.559Z,73.20
2019-06-27T00:18:49.958Z,74.70
2019-06-27T00:21:18.438Z,75.20
2019-06-27T00:23:46.821Z,75.70
2019-06-27T00:26:15.233Z,76.10
2019-06-27T00:28:43.626Z,76.90
2019-06-27T00:31:12.096Z,77.00
2019-06-27T00:33:40.696Z,77.00
2019-06-27T00:36:09.073Z,76.50
2019-06-27T00:38:37.438Z,76.70
2019-06-27T00:41:05.963Z,77.20
2019-06-27T00:43:34.364Z,77.30
2019-06-27T00:46:02.751Z,77.10
2019-06-27T00:48:31.778Z,77.70
2019-06-27T00:51:00.104Z,77.90
2019-06-27T00:53:28.401Z,78.80
2019-06-27T00:55:56.762Z,78.50
2019-06-27T00:58:24.975Z,78.40
2019-06-27T01:00:53.222Z,78.10
2019-06-27T01:03:21.734Z,78.10
2019-06-27T01:05:50.096Z,78.30
2019-06-27T01:08:18.588Z,78.50
2019-06-27T01:11:00.577Z,78.90
2019-06-27T01:13:51.497Z,78.60
2019-06-27T01:16:21.096Z,78.60
2019-06-27T01:18:49.354Z,79.30
2019-06-27T01:21:17.744Z,79.40
2019-06-27T01:23:46.213Z,79.80
2019-06-27T01:26:14.706Z,80.00
2019-06-27T01:28:43.072Z,80.00
2019-06-27T01:31:11.487Z,80.00
2019-06-27T01:33:39.824Z,79.60
2019-06-27T01:36:08.186Z,80.30
2019-06-27T01:38:36.607Z,80.30
2019-06-27T01:41:04.993Z,80.80
2019-06-27T01:43:33.531Z,79.60
2019-06-27T01:46:02.139Z,78.50
2019-06-27T01:48:30.521Z,80.20
2019-06-27T01:50:58.989Z,81.50
2019-06-27T01:53:27.454Z,82.60
2019-06-27T01:55:55.915Z,82.40
2019-06-27T01:58:24.251Z,82.60
2019-06-27T02:00:52.808Z,82.60
2019-06-27T02:03:21.309Z,83.50
2019-06-27T02:05:49.771Z,84.20
2019-06-27T02:08:18.362Z,83.60
2019-06-27T02:10:46.734Z,84.20
2019-06-27T02:13:14.955Z,84.30
2019-06-27T02:15:43.622Z,84.80
2019-06-27T02:18:11.948Z,85.30
2019-06-27T02:20:40.296Z,85.90
2019-06-27T02:23:09.732Z,86.10
2019-06-27T02:25:38.051Z,86.10
2019-06-27T02:28:06.506Z,86.30
2019-06-27T02:30:40.727Z,86.30
2019-06-27T02:33:10.769Z,85.80
2019-06-27T02:35:39.587Z,85.20
2019-06-27T02:38:09.027Z,85.10
2019-06-27T02:40:37.427Z,84.80
2019-06-27T02:43:05.885Z,85.10
2019-06-27T02:45:34.440Z,85.50
2019-06-27T02:48:03.204Z,85.70
2019-06-27T02:50:31.630Z,86.00
2019-06-27T02:53:00.169Z,84.40
2019-06-27T02:55:29.082Z,83.30
2019-06-27T02:57:57.566Z,83.40
2019-06-27T03:00:27.042Z,83.70
2019-06-27T03:02:55.327Z,84.50
2019-06-27T03:05:23.624Z,84.60
2019-06-27T03:07:52.184Z,84.50
2019-06-27T03:10:20.594Z,84.30
2019-06-27T03:12:48.834Z,84.50
2019-06-27T03:15:17.774Z,84.80
2019-06-27T03:17:46.163Z,84.60
2019-06-27T03:20:14.832Z,84.80
2019-06-27T03:22:43.268Z,85.50
2019-06-27T03:25:11.738Z,85.60
2019-06-27T03:27:40.054Z,86.10
2019-06-27T03:30:08.758Z,86.90
2019-06-27T03:32:37.382Z,87.20
2019-06-27T03:35:06.027Z,87.10
2019-06-27T03:37:34.585Z,87.00
2019-06-27T03:40:05.477Z,87.20
2019-06-27T03:42:34.001Z,88.70
2019-06-27T03:45:02.410Z,89.00
2019-06-27T03:47:30.819Z,88.80
2019-06-27T03:49:59.312Z,89.20
2019-06-27T03:52:27.737Z,88.70
2019-06-27T03:54:56.155Z,89.10
2019-06-27T03:57:24.593Z,89.10
2019-06-27T03:59:52.885Z,89.00
2019-06-27T04:02:21.188Z,89.10
2019-06-27T04:04:49.793Z,88.10
2019-06-27T04:07:18.412Z,87.10
2019-06-27T04:09:46.745Z,87.80
2019-06-27T04:12:15.168Z,86.40
2019-06-27T04:14:43.456Z,82.70
2019-06-27T04:17:11.852Z,82.30
2019-06-27T04:19:40.258Z,81.20
2019-06-27T04:22:09.594Z,79.70
2019-06-27T04:24:38.007Z,80.10
2019-06-27T04:27:06.626Z,79.30
2019-06-27T04:29:35.213Z,79.00
2019-06-27T04:32:04.647Z,77.30
2019-06-27T04:34:33.083Z,75.50
2019-06-27T04:37:01.469Z,74.30
2019-06-27T04:39:30.025Z,73.70
2019-06-27T04:41:58.367Z,72.90
2019-06-27T04:44:26.582Z,71.10
2019-06-27T04:46:55.017Z,70.40
2019-06-27T04:49:23.498Z,67.10
2019-06-27T04:51:51.916Z,64.20
2019-06-27T04:54:20.262Z,61.80
2019-06-27T04:56:48.728Z,62.80
2019-06-27T04:59:17.086Z,63.40
2019-06-27T05:01:45.450Z,63.80
2019-06-27T05:04:13.944Z,62.10
2019-06-27T05:06:42.339Z,61.30
2019-06-27T05:09:10.715Z,59.50
2019-06-27T05:11:39.193Z,57.90
2019-06-27T05:14:07.569Z,59.30
2019-06-27T05:16:35.822Z,58.20
2019-06-27T05:19:04.325Z,57.30
2019-06-27T05:21:32.784Z,57.80
2019-06-27T05:24:01.166Z,57.00
2019-06-27T05:26:29.679Z,55.30
2019-06-27T05:28:58.144Z,53.70
2019-06-27T05:31:26.437Z,54.40
2019-06-27T05:33:54.891Z,54.60
2019-06-27T05:36:23.285Z,54.20
2019-06-27T05:38:51.697Z,55.20
2019-06-27T05:41:20.257Z,54.00
2019-06-27T05:43:49.658Z,52.50
2019-06-27T05:46:18.049Z,52.40
2019-06-27T05:48:46.479Z,51.60
2019-06-27T05:51:14.897Z,49.50
2019-06-27T05:53:45.621Z,49.60
2019-06-27T05:56:13.635Z,50.30
2019-06-27T05:58:42.112Z,50.80
2019-06-27T06:01:10.816Z,48.10
2019-06-27T06:03:39.369Z,48.30
2019-06-27T06:06:07.731Z,46.90
2019-06-27T06:08:36.091Z,45.50
2019-06-27T06:11:04.601Z,45.20
2019-06-27T06:13:32.951Z,43.80
2019-06-27T06:16:01.572Z,42.20
2019-06-27T06:18:30.271Z,40.10
2019-06-27T06:20:59.794Z,39.50
2019-06-27T06:23:28.136Z,39.50
2019-06-27T06:25:56.489Z,39.60
2019-06-27T06:28:25.842Z,39.30
2019-06-27T06:30:54.227Z,37.20
2019-06-27T06:33:22.747Z,36.10
2019-06-27T06:35:51.286Z,35.10
2019-06-27T06:38:19.670Z,35.30
2019-06-27T06:40:48.286Z,35.80
2019-06-27T06:43:16.710Z,35.50
2019-06-27T06:45:45.282Z,36.60
2019-06-27T06:48:13.542Z,35.70
2019-06-27T06:50:41.758Z,34.60
2019-06-27T06:53:09.982Z,36.70
2019-06-27T06:55:38.451Z,37.90
2019-06-27T06:58:06.872Z,36.00
2019-06-27T07:00:35.088Z,33.10
2019-06-27T07:03:03.524Z,33.60
2019-06-27T07:05:31.811Z,33.10
2019-06-27T07:08:00.136Z,31.40
2019-06-27T07:10:28.472Z,30.50
2019-06-27T07:12:56.693Z,30.50
2019-06-27T07:15:24.911Z,29.80
2019-06-27T07:17:53.264Z,30.20
2019-06-27T07:20:21.475Z,30.70
2019-06-27T07:22:49.750Z,29.80
2019-06-27T07:25:18.155Z,29.90
2019-06-27T07:27:46.478Z,29.80
2019-06-27T07:30:15.667Z,30.00
2019-06-27T07:32:44.023Z,30.00
2019-06-27T07:35:12.443Z,29.80
2019-06-27T07:37:40.919Z,28.90
2019-06-27T07:40:09.753Z,28.80
2019-06-27T07:42:38.102Z,27.50
2019-06-27T07:45:06.915Z,27.20
2019-06-27T07:47:35.224Z,27.60
2019-06-27T07:50:04.624Z,27.50
2019-06-27T07:52:32.906Z,26.40
2019-06-27T07:55:01.322Z,25.00
2019-06-27T07:57:30.627Z,24.50
2019-06-27T07:59:58.831Z,24.60
2019-06-27T08:02:27.250Z,25.10
2019-06-27T08:04:55.458Z,24.10
2019-06-27T08:07:23.671Z,24.40
2019-06-27T08:09:52.158Z,24.40
2019-06-27T08:12:20.444Z,24.20
2019-06-27T08:14:48.665Z,24.00
2019-06-27T08:17:16.999Z,24.70
2019-06-27T08:19:45.198Z,23.30
2019-06-27T08:22:13.417Z,24.20
2019-06-27T08:24:41.687Z,23.40
2019-06-27T08:27:09.891Z,24.00
2019-06-27T08:29:38.086Z,24.70
2019-06-27T08:32:06.353Z,24.90
2019-06-27T08:34:34.556Z,25.00
2019-06-27T08:37:02.983Z,24.40
2019-06-27T08:39:31.365Z,23.50
2019-06-27T08:41:59.776Z,24.30
2019-06-27T08:44:28.003Z,23.30
2019-06-27T08:46:56.265Z,24.00
2019-06-27T08:49:24.490Z,22.90
2019-06-27T08:51:52.693Z,23.10
2019-06-27T08:54:21.046Z,23.90
2019-06-27T08:56:49.277Z,23.20
2019-06-27T08:59:17.491Z,22.80
2019-06-27T09:01:45.932Z,23.00
2019-06-27T09:04:14.180Z,22.50
2019-06-27T09:06:46.806Z,23.60
2019-06-27T09:09:15.013Z,21.90
2019-06-27T09:11:43.322Z,22.80
2019-06-27T09:14:11.727Z,22.10
2019-06-27T09:16:39.959Z,21.40
2019-06-27T09:19:08.255Z,20.70
2019-06-27T09:21:36.601Z,19.80
2019-06-27T09:24:04.937Z,20.30
2019-06-27T09:26:33.139Z,18.90
2019-06-27T09:29:01.605Z,19.90
2019-06-27T09:31:29.921Z,19.20
2019-06-27T09:33:58.129Z,19.20
2019-06-27T09:36:26.482Z,19.70
2019-06-27T09:38:54.701Z,19.80
2019-06-27T09:41:23.069Z,19.50
2019-06-27T09:43:51.450Z,19.50
2019-06-27T09:46:19.720Z,20.30
2019-06-27T09:48:48.025Z,16.90
2019-06-27T09:51:16.269Z,17.20
2019-06-27T09:53:44.599Z,17.30
2019-06-27T09:56:12.901Z,17.30
2019-06-27T09:58:41.386Z,17.00
2019-06-27T10:01:09.592Z,16.60
2019-06-27T10:03:37.898Z,17.40
2019-06-27T10:06:06.390Z,17.60
2019-06-27T10:08:34.698Z,17.50
2019-06-27T10:11:03.056Z,17.60
2019-06-27T10:13:31.589Z,18.10
2019-06-27T10:15:59.922Z,17.70
2019-06-27T10:18:28.184Z,17.80
2019-06-27T10:20:56.509Z,18.10
2019-06-27T10:23:24.823Z,15.50
2019-06-27T10:25:53.144Z,16.00
2019-06-27T10:28:21.596Z,15.70
2019-06-27T10:30:49.806Z,15.90
2019-06-27T10:33:18.125Z,16.40
2019-06-27T10:35:46.520Z,15.90
2019-06-27T10:38:14.732Z,15.50
2019-06-27T10:40:43.149Z,16.10
2019-06-27T10:43:13.363Z,14.10
2019-06-27T10:45:41.714Z,15.10
2019-06-27T10:48:10.151Z,14.50
2019-06-27T10:50:38.514Z,15.20
2019-06-27T10:53:06.709Z,16.10
2019-06-27T10:55:35.021Z,15.90
2019-06-27T10:58:03.575Z,14.70
2019-06-27T11:00:31.887Z,15.40
2019-06-27T11:03:14.481Z,14.60
2019-06-27T11:05:30.474Z,14.10
2019-06-27T11:07:58.823Z,13.80
2019-06-27T11:10:27.188Z,14.00
2019-06-27T11:12:59.203Z,13.30
2019-06-27T11:15:25.750Z,13.80
2019-06-27T11:17:53.971Z,13.80
2019-06-27T11:20:22.438Z,13.40
2019-06-27T11:22:50.796Z,13.60
2019-06-27T11:25:19.010Z,13.10
2019-06-27T11:27:47.363Z,13.50
2019-06-27T11:30:16.071Z,12.30
2019-06-27T11:32:44.384Z,13.00
2019-06-27T11:35:13.212Z,12.90
2019-06-27T11:37:41.433Z,13.00
2019-06-27T11:40:12.325Z,13.10
2019-06-27T11:42:40.154Z,12.40
2019-06-27T11:45:08.631Z,12.90
2019-06-27T11:47:36.941Z,13.00
2019-06-27T11:50:06.069Z,13.30
2019-06-27T11:52:34.324Z,13.70
2019-06-27T11:55:02.708Z,13.00
2019-06-27T11:57:31.087Z,13.70
2019-06-27T11:59:59.311Z,13.20
2019-06-27T12:02:27.520Z,13.10
2019-06-27T12:04:55.852Z,14.10
2019-06-27T12:07:24.069Z,13.60
2019-06-27T12:09:52.484Z,14.40
2019-06-27T12:12:20.899Z,13.40
2019-06-27T12:14:50.166Z,13.90
2019-06-27T12:17:18.499Z,13.80
2019-06-27T12:19:47.794Z,12.80
2019-06-27T12:22:16.144Z,13.30
2019-06-27T12:24:44.503Z,13.60
2019-06-27T12:27:12.989Z,13.20
2019-06-27T12:29:41.317Z,13.90
2019-06-27T12:32:09.899Z,12.60
2019-06-27T12:34:38.513Z,12.90
2019-06-27T12:37:06.856Z,12.60
2019-06-27T12:39:35.162Z,13.10
2019-06-27T12:42:03.546Z,12.80
2019-06-27T12:44:31.929Z,12.90
2019-06-27T12:47:00.437Z,11.70
2019-06-27T12:49:49.593Z,11.90
2019-06-27T12:51:59.252Z,12.00
2019-06-27T12:54:27.626Z,12.50
2019-06-27T12:56:55.979Z,12.40
2019-06-27T12:59:24.402Z,11.20
2019-06-27T13:01:52.661Z,12.70
2019-06-27T13:04:23.994Z,11.90
2019-06-27T13:06:51.194Z,11.80
2019-06-27T13:09:19.650Z,11.20
2019-06-27T13:11:49.056Z,11.40
2019-06-27T13:14:17.471Z,11.40
2019-06-27T13:16:45.861Z,11.70
2019-06-27T13:19:14.379Z,12.40
2019-06-27T13:21:42.782Z,11.40
2019-06-27T13:24:11.277Z,11.80
2019-06-27T13:26:39.942Z,11.30
2019-06-27T13:29:08.359Z,11.20
2019-06-27T13:31:36.766Z,11.50
2019-06-27T13:34:05.348Z,11.20
2019-06-27T13:36:33.761Z,10.80
2019-06-27T13:39:06.032Z,10.70
2019-06-27T13:41:32.754Z,10.70
2019-06-27T13:44:01.051Z,11.40
2019-06-27T13:46:29.412Z,11.10
2019-06-27T13:48:58.366Z,11.30
2019-06-27T13:51:26.749Z,11.70
2019-06-27T13:53:55.110Z,11.00
2019-06-27T13:56:23.670Z,10.70
2019-06-27T13:58:51.922Z,10.70
2019-06-27T14:01:20.234Z,10.70
2019-06-27T14:03:49.933Z,10.40
2019-06-27T14:06:18.603Z,9.80
2019-06-27T14:08:47.153Z,10.40
2019-06-27T14:11:15.751Z,10.40
2019-06-27T14:13:44.349Z,10.40
2019-06-27T14:16:12.742Z,11.00
2019-06-27T14:18:41.203Z,10.30
2019-06-27T14:21:09.590Z,10.20
2019-06-27T14:23:38.218Z,10.90
2019-06-27T14:26:06.945Z,10.80
2019-06-27T14:28:35.431Z,10.30
2019-06-27T14:31:03.774Z,12.20
2019-06-27T14:33:32.183Z,11.30
2019-06-27T14:36:00.759Z,11.30
2019-06-27T14:38:29.095Z,12.10
2019-06-27T14:40:57.477Z,12.30
2019-06-27T14:43:25.931Z,10.70
2019-06-27T14:45:54.204Z,10.60
2019-06-27T14:48:22.742Z,10.00
2019-06-27T14:50:51.036Z,9.70
2019-06-27T14:53:19.410Z,9.30
2019-06-27T14:55:48.922Z,9.80
2019-06-27T14:58:17.262Z,9.70
2019-06-27T15:00:45.833Z,9.80
2019-06-27T15:03:14.205Z,10.20
2019-06-27T15:05:42.458Z,10.10
2019-06-27T15:08:10.923Z,9.90
2019-06-27T15:10:39.300Z,10.20
2019-06-27T15:13:07.565Z,10.20
2019-06-27T15:15:35.884Z,10.60
2019-06-27T15:18:04.640Z,10.20
2019-06-27T15:20:33.000Z,9.80
2019-06-27T15:23:01.369Z,10.20
2019-06-27T15:25:30.064Z,10.60
2019-06-27T15:27:58.549Z,10.50
2019-06-27T15:30:26.829Z,9.90
2019-06-27T15:33:13.421Z,10.80
2019-06-27T15:35:51.940Z,10.00
2019-06-27T15:38:12.607Z,10.80
2019-06-27T15:40:41.840Z,11.60
2019-06-27T15:43:10.222Z,11.30
2019-06-27T15:45:38.654Z,11.00
2019-06-27T15:48:07.061Z,11.70
2019-06-27T15:50:35.503Z,10.80
2019-06-27T15:53:04.034Z,11.80
2019-06-27T15:55:32.442Z,12.10
2019-06-27T15:58:00.921Z,12.30
2019-06-27T16:00:29.332Z,12.50
2019-06-27T16:02:57.624Z,13.00
2019-06-27T16:05:26.026Z,12.90
2019-06-27T16:07:54.606Z,13.50
2019-06-27T16:10:23.181Z,13.30
2019-06-27T16:12:51.579Z,13.20
2019-06-27T16:15:20.024Z,14.60
2019-06-27T16:17:48.406Z,14.00
2019-06-27T16:20:17.336Z,14.30
2019-06-27T16:22:46.854Z,14.70
2019-06-27T16:25:15.202Z,15.20
2019-06-27T16:27:43.634Z,14.50
2019-06-27T16:30:12.711Z,15.00
2019-06-27T16:32:40.982Z,15.70
2019-06-27T16:35:09.459Z,16.90
2019-06-27T16:37:37.938Z,16.40
2019-06-27T16:40:06.701Z,16.60
2019-06-27T16:42:35.231Z,16.60
2019-06-27T16:45:04.619Z,16.80
2019-06-27T16:47:33.047Z,16.70
2019-06-27T16:50:01.497Z,17.10
2019-06-27T16:52:30.144Z,16.80
2019-06-27T16:54:58.386Z,16.60
2019-06-27T16:57:26.724Z,17.00
2019-06-27T16:59:55.274Z,17.40
2019-06-27T17:02:23.739Z,17.80
2019-06-27T17:04:52.129Z,18.20
2019-06-27T17:07:21.323Z,18.30
2019-06-27T17:09:51.957Z,18.40
2019-06-27T17:12:20.427Z,18.90
2019-06-27T17:14:48.909Z,18.60
2019-06-27T17:17:17.261Z,19.30
2019-06-27T17:19:46.643Z,20.20
2019-06-27T17:22:15.522Z,20.80
2019-06-27T17:24:43.960Z,20.50
2019-06-27T17:27:12.431Z,21.50
2019-06-27T17:29:40.894Z,22.40
2019-06-27T17:32:09.336Z,23.30
2019-06-27T17:34:37.810Z,24.00
2019-06-27T17:37:06.259Z,24.70
2019-06-27T17:39:34.631Z,24.70
2019-06-27T17:42:03.151Z,25.60
2019-06-27T17:44:31.641Z,26.40
2019-06-27T17:47:00.193Z,25.60
2019-06-27T17:49:28.608Z,25.70
2019-06-27T17:51:57.111Z,26.00
2019-06-27T17:54:25.653Z,27.20
2019-06-27T17:56:54.059Z,27.20
2019-06-27T17:59:22.614Z,26.90
2019-06-27T18:01:51.179Z,27.30
2019-06-27T18:04:19.800Z,25.80
2019-06-27T18:06:48.331Z,26.30
2019-06-27T18:09:16.832Z,26.70
2019-06-27T18:11:45.424Z,27.40
2019-06-27T18:14:31.841Z,28.50
2019-06-27T18:17:00.272Z,27.20
2019-06-27T18:19:28.828Z,28.50
2019-06-27T18:21:57.361Z,28.60
2019-06-27T18:24:25.879Z,28.40
2019-06-27T18:26:54.259Z,28.10
2019-06-27T18:29:22.763Z,27.70
2019-06-27T18:31:51.198Z,27.40
2019-06-27T18:34:19.730Z,27.00
2019-06-27T18:36:48.235Z,25.80
2019-06-27T18:39:16.763Z,27.10
2019-06-27T18:41:45.106Z,27.40
2019-06-27T18:44:13.680Z,27.90
2019-06-27T18:46:41.984Z,27.80
2019-06-27T18:49:10.416Z,27.20
2019-06-27T18:51:38.959Z,27.40
2019-06-27T18:54:07.318Z,27.70
2019-06-27T18:56:35.768Z,28.00
2019-06-27T18:59:04.204Z,29.10
2019-06-27T19:01:32.697Z,29.00
2019-06-27T19:04:14.804Z,28.30
2019-06-27T19:06:43.204Z,29.40
2019-06-27T19:09:11.589Z,31.00
2019-06-27T19:11:41.271Z,29.20
2019-06-27T19:14:09.815Z,30.20
2019-06-27T19:16:38.429Z,31.00
2019-06-27T19:19:09.091Z,30.00
2019-06-27T19:21:47.589Z,34.20
2019-06-27T19:24:39.439Z,35.70
2019-06-27T19:27:07.823Z,36.20
2019-06-27T19:29:36.150Z,37.80
2019-06-27T19:32:04.753Z,37.60
2019-06-27T19:34:33.092Z,38.00
2019-06-27T19:37:01.437Z,37.90
2019-06-27T19:39:29.794Z,38.10
2019-06-27T19:41:58.227Z,38.20
2019-06-27T19:44:26.659Z,37.80
2019-06-27T19:46:55.086Z,37.80
2019-06-27T19:49:23.510Z,38.90
2019-06-27T19:51:51.979Z,39.30
2019-06-27T19:54:20.654Z,40.20
2019-06-27T19:56:48.964Z,41.60
2019-06-27T19:59:17.229Z,42.00
2019-06-27T20:01:45.756Z,42.90
2019-06-27T20:04:14.372Z,43.40
2019-06-27T20:06:42.769Z,43.20
2019-06-27T20:09:11.330Z,44.30
2019-06-27T20:11:40.006Z,44.40
2019-06-27T20:14:08.402Z,44.90
2019-06-27T20:16:36.815Z,45.70
2019-06-27T20:19:06.127Z,45.90
2019-06-27T20:21:34.667Z,46.10
2019-06-27T20:24:03.283Z,46.50
2019-06-27T20:26:31.882Z,47.10
2019-06-27T20:29:00.492Z,47.00
2019-06-27T20:31:28.902Z,47.10
2019-06-27T20:33:57.267Z,47.60
2019-06-27T20:36:25.617Z,48.00
2019-06-27T20:38:54.179Z,48.10
2019-06-27T20:41:22.401Z,48.50
2019-06-27T20:43:50.813Z,48.80
2019-06-27T20:46:19.192Z,49.50
2019-06-27T20:48:47.671Z,49.80
2019-06-27T20:51:16.457Z,50.10
2019-06-27T20:53:44.811Z,50.20
2019-06-27T20:56:13.179Z,50.70
2019-06-27T20:58:42.952Z,50.70
2019-06-27T21:01:11.244Z,50.90
2019-06-27T21:03:39.618Z,52.10
2019-06-27T21:06:07.949Z,52.90
2019-06-27T21:08:50.315Z,51.90
2019-06-27T21:11:06.614Z,52.90
2019-06-27T21:13:35.096Z,53.20
2019-06-27T21:16:03.730Z,53.80
2019-06-27T21:18:32.051Z,53.50
2019-06-27T21:21:00.540Z,54.10
2019-06-27T21:23:30.128Z,54.90
2019-06-27T21:25:58.512Z,55.30
2019-06-27T21:28:26.927Z,55.80
2019-06-27T21:30:55.469Z,55.90
2019-06-27T21:33:23.871Z,56.40
2019-06-27T21:35:52.163Z,56.90
2019-06-27T21:38:20.739Z,57.80
2019-06-27T21:40:49.232Z,58.00
2019-06-27T21:43:17.594Z,57.70
2019-06-27T21:45:46.079Z,57.70
2019-06-27T21:48:14.342Z,58.00
2019-06-27T21:50:42.699Z,58.40
2019-06-27T21:53:11.086Z,57.90
2019-06-27T21:55:39.466Z,58.50
2019-06-27T21:58:07.837Z,58.90
2019-06-27T22:00:38.714Z,58.80
2019-06-27T22:03:12.167Z,58.90
2019-06-27T22:05:40.863Z,58.90
2019-06-27T22:08:09.319Z,58.40
2019-06-27T22:10:37.587Z,58.60
2019-06-27T22:13:06.101Z,58.30
2019-06-27T22:15:34.482Z,57.70
2019-06-27T22:18:02.858Z,57.50
2019-06-27T22:20:31.301Z,57.70
2019-06-27T22:22:59.659Z,57.80
2019-06-27T22:25:39.889Z,58.80
2019-06-27T22:27:58.422Z,58.70
2019-06-27T22:30:59.896Z,58.40
2019-06-27T22:33:28.432Z,58.80
2019-06-27T22:35:56.774Z,59.10
2019-06-27T22:38:43.202Z,60.20
2019-06-27T22:41:29.129Z,61.50
2019-06-27T22:44:15.172Z,63.00
2019-06-27T22:47:01.674Z,64.90
2019-06-27T22:49:30.302Z,67.20
2019-06-27T22:52:30.237Z,67.90
2019-06-27T22:55:00.062Z,68.60
2019-06-27T22:57:28.421Z,68.60
2019-06-27T22:59:56.984Z,68.90
2019-06-27T23:02:26.596Z,68.70
2019-06-27T23:04:55.115Z,69.50
2019-06-27T23:07:23.511Z,69.60
2019-06-27T23:09:56.838Z,69.60
2019-06-27T23:12:22.581Z,69.20
2019-06-27T23:14:51.131Z,68.90
2019-06-27T23:17:19.654Z,66.90
2019-06-27T23:19:49.154Z,64.80
2019-06-27T23:22:17.718Z,64.90
2019-06-27T23:24:46.209Z,65.80
2019-06-27T23:27:14.841Z,67.00
2019-06-27T23:29:43.204Z,66.90
2019-06-27T23:32:11.622Z,66.50
2019-06-27T23:34:40.107Z,65.70
2019-06-27T23:37:08.719Z,65.90
2019-06-27T23:39:37.092Z,67.00
2019-06-27T23:42:05.499Z,67.20
2019-06-27T23:44:33.946Z,67.50
2019-06-27T23:47:03.494Z,69.60
2019-06-27T23:49:31.964Z,70.80
2019-06-27T23:52:00.846Z,72.00
2019-06-27T23:54:29.206Z,72.20
2019-06-27T23:56:57.618Z,72.40
2019-06-27T23:59:26.027Z,72.30
